Nain, Canada
Current Conditions -  °F | °C
As of 8:00 PM on Tuesday 21 Oct 2014 (Local Time) from CYDP Reporting Station
Clear Clear  
Wind Chill: 17°   Ceiling: Unl
Heat Index: 30°   Visibility: 15mi
Dew Point: 21°   Wind: 23mph
Humidity: 69%   Direction: 310°NW
Pressure: 30.13"   Gusts: NA
Location:  56.55°N, 61.68°W
Report Text: CYDP 212300Z 31020KT 15SM SKC M01/M06 A3013 RMK LAST STAFFEDOB/ NEXT 220800 SLP203
Loading
Personal Weather Stations






























Interactive Weather Map
Tropical Storm Tracking
New forecast layout! Learn more

10-Day Weather Forecast

Advertisements
Track Severe Weather on mobile